sensor_id;sensor_type;location;lat;lon;timestamp;temperature;humidity
10536;DHT22;5316;49.538;8.352;2023-04-01T00:02:00;11.20;1.00
10536;DHT22;5316;49.538;8.352;2023-04-01T00:04:30;11.20;1.00
10536;DHT22;5316;49.538;8.352;2023-04-01T00:06:58;11.20;1.00
10536;DHT22;5316;49.538;8.352;2023-04-01T00:09:25;11.20;1.00
10536;DHT22;5316;49.538;8.352;2023-04-01T00:11:53;11.20;1.00
10536;DHT22;5316;49.538;8.352;2023-04-01T00:14:20;11.20;1.00
10536;DHT22;5316;49.538;8.352;2023-04-01T00:16:47;11.10;1.00
10536;DHT22;5316;49.538;8.352;2023-04-01T00:19:14;11.10;1.00
10536;DHT22;5316;49.538;8.352;2023-04-01T00:21:44;11.20;1.00
10536;DHT22;5316;49.538;8.352;2023-04-01T00:24:12;11.10;1.00
10536;DHT22;5316;49.538;8.352;2023-04-01T00:26:39;11.10;1.90
10536;DHT22;5316;49.538;8.352;2023-04-01T00:29:07;11.00;6.00
10536;DHT22;5316;49.538;8.352;2023-04-01T00:31:35;11.00;9.70
10536;DHT22;5316;49.538;8.352;2023-04-01T00:34:02;11.00;6.70
10536;DHT22;5316;49.538;8.352;2023-04-01T00:36:33;11.00;6.80
10536;DHT22;5316;49.538;8.352;2023-04-01T00:39:03;11.00;9.10
10536;DHT22;5316;49.538;8.352;2023-04-01T00:41:33;11.00;3.70
10536;DHT22;5316;49.538;8.352;2023-04-01T00:44:16;11.10;6.00
10536;DHT22;5316;49.538;8.352;2023-04-01T00:46:45;11.10;5.70
10536;DHT22;5316;49.538;8.352;2023-04-01T00:49:12;11.00;6.90
10536;DHT22;5316;49.538;8.352;2023-04-01T00:51:40;11.10;4.20
10536;DHT22;5316;49.538;8.352;2023-04-01T00:54:09;11.10;3.80
10536;DHT22;5316;49.538;8.352;2023-04-01T00:56:39;11.00;1.00
10536;DHT22;5316;49.538;8.352;2023-04-01T00:59:11;11.00;1.00
10536;DHT22;5316;49.538;8.352;2023-04-01T01:01:38;11.00;1.00
10536;DHT22;5316;49.538;8.352;2023-04-01T01:04:06;11.10;1.00
10536;DHT22;5316;49.538;8.352;2023-04-01T01:06:44;11.10;1.00
10536;DHT22;5316;49.538;8.352;2023-04-01T01:09:29;11.10;1.00
10536;DHT22;5316;49.538;8.352;2023-04-01T01:12:04;11.10;1.00
10536;DHT22;5316;49.538;8.352;2023-04-01T01:14:40;11.00;1.00
10536;DHT22;5316;49.538;8.352;2023-04-01T01:17:15;11.00;3.00
10536;DHT22;5316;49.538;8.352;2023-04-01T01:26:44;11.00;1.00
10536;DHT22;5316;49.538;8.352;2023-04-01T01:29:27;11.00;1.00
10536;DHT22;5316;49.538;8.352;2023-04-01T01:32:01;11.00;1.00
10536;DHT22;5316;49.538;8.352;2023-04-01T01:34:35;11.00;4.30
10536;DHT22;5316;49.538;8.352;2023-04-01T01:37:10;11.00;1.20
10536;DHT22;5316;49.538;8.352;2023-04-01T01:39:41;11.00;1.00
10536;DHT22;5316;49.538;8.352;2023-04-01T01:42:13;11.00;1.00
10536;DHT22;5316;49.538;8.352;2023-04-01T01:44:42;11.10;1.00
10536;DHT22;5316;49.538;8.352;2023-04-01T01:47:17;11.10;1.00
10536;DHT22;5316;49.538;8.352;2023-04-01T01:49:45;11.10;1.00
10536;DHT22;5316;49.538;8.352;2023-04-01T01:52:14;11.10;1.00
10536;DHT22;5316;49.538;8.352;2023-04-01T01:54:56;11.10;1.00
10536;DHT22;5316;49.538;8.352;2023-04-01T01:57:39;11.10;1.00
10536;DHT22;5316;49.538;8.352;2023-04-01T02:00:19;11.10;4.00
10536;DHT22;5316;49.538;8.352;2023-04-01T02:37:45;10.60;99.90
10536;DHT22;5316;49.538;8.352;2023-04-01T02:40:29;10.50;99.90
10536;DHT22;5316;49.538;8.352;2023-04-01T02:43:06;10.50;99.90
10536;DHT22;5316;49.538;8.352;2023-04-01T02:45:43;10.50;99.90
10536;DHT22;5316;49.538;8.352;2023-04-01T02:48:40;10.40;99.90
10536;DHT22;5316;49.538;8.352;2023-04-01T02:51:35;10.40;99.90
10536;DHT22;5316;49.538;8.352;2023-04-01T02:54:35;10.40;99.90
10536;DHT22;5316;49.538;8.352;2023-04-01T03:01:02;10.50;88.70
10536;DHT22;5316;49.538;8.352;2023-04-01T03:03:59;10.50;84.50
10536;DHT22;5316;49.538;8.352;2023-04-01T03:09:54;10.50;82.10
10536;DHT22;5316;49.538;8.352;2023-04-01T03:12:41;10.50;90.30
10536;DHT22;5316;49.538;8.352;2023-04-01T03:15:25;10.50;94.00
10536;DHT22;5316;49.538;8.352;2023-04-01T03:18:29;10.60;79.10
10536;DHT22;5316;49.538;8.352;2023-04-01T03:21:22;10.60;91.30
10536;DHT22;5316;49.538;8.352;2023-04-01T03:24:16;10.60;82.70
10536;DHT22;5316;49.538;8.352;2023-04-01T03:27:11;10.60;78.00
10536;DHT22;5316;49.538;8.352;2023-04-01T03:30:11;10.60;65.10
10536;DHT22;5316;49.538;8.352;2023-04-01T03:33:12;10.60;78.40
10536;DHT22;5316;49.538;8.352;2023-04-01T03:36:06;10.60;77.90
10536;DHT22;5316;49.538;8.352;2023-04-01T03:38:44;10.60;93.60
10536;DHT22;5316;49.538;8.352;2023-04-01T03:41:23;10.50;97.10
10536;DHT22;5316;49.538;8.352;2023-04-01T03:47:17;10.50;93.10
10536;DHT22;5316;49.538;8.352;2023-04-01T03:49:59;10.50;94.10
10536;DHT22;5316;49.538;8.352;2023-04-01T04:02:41;10.60;86.20
10536;DHT22;5316;49.538;8.352;2023-04-01T04:05:20;10.60;92.70
10536;DHT22;5316;49.538;8.352;2023-04-01T04:08:09;10.50;91.80
10536;DHT22;5316;49.538;8.352;2023-04-01T05:03:46;10.70;72.00
10536;DHT22;5316;49.538;8.352;2023-04-01T05:10:05;10.70;73.50
10536;DHT22;5316;49.538;8.352;2023-04-01T05:34:06;10.50;99.90
10536;DHT22;5316;49.538;8.352;2023-04-01T05:37:16;10.50;99.90
10536;DHT22;5316;49.538;8.352;2023-04-01T05:43:42;10.40;99.90
10536;DHT22;5316;49.538;8.352;2023-04-01T05:50:36;10.40;99.90
10536;DHT22;5316;49.538;8.352;2023-04-01T06:14:28;10.50;99.90
10536;DHT22;5316;49.538;8.352;2023-04-01T06:28:01;10.50;99.90
10536;DHT22;5316;49.538;8.352;2023-04-01T06:30:54;10.50;95.60
10536;DHT22;5316;49.538;8.352;2023-04-01T06:44:16;10.60;99.20
10536;DHT22;5316;49.538;8.352;2023-04-01T06:46:49;10.60;99.90
10536;DHT22;5316;49.538;8.352;2023-04-01T06:50:43;10.70;99.60
10536;DHT22;5316;49.538;8.352;2023-04-01T07:30:18;10.90;99.90
10536;DHT22;5316;49.538;8.352;2023-04-01T09:35:58;11.90;99.90
10536;DHT22;5316;49.538;8.352;2023-04-01T09:38:44;12.00;99.90
10536;DHT22;5316;49.538;8.352;2023-04-01T09:41:29;12.10;99.90
10536;DHT22;5316;49.538;8.352;2023-04-01T09:44:04;12.10;99.90
10536;DHT22;5316;49.538;8.352;2023-04-01T09:46:47;12.20;99.90
10536;DHT22;5316;49.538;8.352;2023-04-01T09:50:06;12.30;99.90
10536;DHT22;5316;49.538;8.352;2023-04-01T09:53:12;12.30;99.90
10536;DHT22;5316;49.538;8.352;2023-04-01T09:56:17;12.30;98.30
10536;DHT22;5316;49.538;8.352;2023-04-01T10:11:51;12.30;97.80
10536;DHT22;5316;49.538;8.352;2023-04-01T10:14:42;12.20;99.90
10536;DHT22;5316;49.538;8.352;2023-04-01T10:24:14;12.20;99.90
10536;DHT22;5316;49.538;8.352;2023-04-01T10:30:19;12.20;99.90
10536;DHT22;5316;49.538;8.352;2023-04-01T10:33:25;12.20;99.90
10536;DHT22;5316;49.538;8.352;2023-04-01T10:36:26;12.30;99.90
10536;DHT22;5316;49.538;8.352;2023-04-01T10:52:06;12.40;99.90
10536;DHT22;5316;49.538;8.352;2023-04-01T10:54:45;12.40;99.90
10536;DHT22;5316;49.538;8.352;2023-04-01T11:00:38;12.40;99.90
10536;DHT22;5316;49.538;8.352;2023-04-01T11:06:45;12.70;90.80
10536;DHT22;5316;49.538;8.352;2023-04-01T11:09:47;12.80;85.40
10536;DHT22;5316;49.538;8.352;2023-04-01T11:12:58;12.90;66.30
10536;DHT22;5316;49.538;8.352;2023-04-01T11:16:04;12.80;35.40
10536;DHT22;5316;49.538;8.352;2023-04-01T11:19:10;12.90;39.00
10536;DHT22;5316;49.538;8.352;2023-04-01T11:24:58;12.70;53.90
10536;DHT22;5316;49.538;8.352;2023-04-01T11:27:51;12.80;60.80
10536;DHT22;5316;49.538;8.352;2023-04-01T11:30:27;12.80;53.50
10536;DHT22;5316;49.538;8.352;2023-04-01T11:33:00;12.80;46.70
10536;DHT22;5316;49.538;8.352;2023-04-01T11:35:52;12.80;50.90
10536;DHT22;5316;49.538;8.352;2023-04-01T11:38:49;12.80;39.30
10536;DHT22;5316;49.538;8.352;2023-04-01T11:41:26;12.70;38.10
10536;DHT22;5316;49.538;8.352;2023-04-01T11:44:09;12.70;54.30
10536;DHT22;5316;49.538;8.352;2023-04-01T11:46:42;12.70;55.10
10536;DHT22;5316;49.538;8.352;2023-04-01T11:49:28;12.60;51.70
10536;DHT22;5316;49.538;8.352;2023-04-01T11:52:19;12.60;41.40
10536;DHT22;5316;49.538;8.352;2023-04-01T11:55:18;12.70;41.20
10536;DHT22;5316;49.538;8.352;2023-04-01T11:58:08;12.80;27.40
10536;DHT22;5316;49.538;8.352;2023-04-01T12:00:59;12.80;26.50
10536;DHT22;5316;49.538;8.352;2023-04-01T12:03:44;12.90;17.80
10536;DHT22;5316;49.538;8.352;2023-04-01T12:06:21;12.90;16.50
10536;DHT22;5316;49.538;8.352;2023-04-01T12:08:57;12.90;12.20
10536;DHT22;5316;49.538;8.352;2023-04-01T12:11:33;12.80;7.80
10536;DHT22;5316;49.538;8.352;2023-04-01T12:14:08;12.90;7.60
10536;DHT22;5316;49.538;8.352;2023-04-01T12:16:57;12.90;9.20
10536;DHT22;5316;49.538;8.352;2023-04-01T12:19:32;12.90;10.00
10536;DHT22;5316;49.538;8.352;2023-04-01T12:22:14;12.90;14.20
10536;DHT22;5316;49.538;8.352;2023-04-01T12:24:46;12.90;13.40
10536;DHT22;5316;49.538;8.352;2023-04-01T12:27:38;12.90;7.90
10536;DHT22;5316;49.538;8.352;2023-04-01T12:30:40;12.90;15.60
10536;DHT22;5316;49.538;8.352;2023-04-01T12:33:26;12.90;16.80
10536;DHT22;5316;49.538;8.352;2023-04-01T12:36:05;13.10;15.40
10536;DHT22;5316;49.538;8.352;2023-04-01T12:38:43;13.10;13.90
10536;DHT22;5316;49.538;8.352;2023-04-01T12:41:18;13.20;1.00
10536;DHT22;5316;49.538;8.352;2023-04-01T12:44:19;13.20;1.00
10536;DHT22;5316;49.538;8.352;2023-04-01T12:47:10;13.30;1.00
10536;DHT22;5316;49.538;8.352;2023-04-01T12:53:01;13.20;8.80
10536;DHT22;5316;49.538;8.352;2023-04-01T12:55:38;13.20;9.00
10536;DHT22;5316;49.538;8.352;2023-04-01T12:58:41;13.20;9.30
10536;DHT22;5316;49.538;8.352;2023-04-01T13:01:25;13.10;17.70
10536;DHT22;5316;49.538;8.352;2023-04-01T13:04:19;13.10;10.50
10536;DHT22;5316;49.538;8.352;2023-04-01T13:07:06;13.10;7.30
10536;DHT22;5316;49.538;8.352;2023-04-01T13:09:45;13.10;5.40
10536;DHT22;5316;49.538;8.352;2023-04-01T13:12:42;13.00;18.60
10536;DHT22;5316;49.538;8.352;2023-04-01T13:15:24;12.90;16.30
10536;DHT22;5316;49.538;8.352;2023-04-01T13:18:02;12.90;25.50
10536;DHT22;5316;49.538;8.352;2023-04-01T13:20:41;12.90;35.80
10536;DHT22;5316;49.538;8.352;2023-04-01T13:23:19;12.90;45.00
10536;DHT22;5316;49.538;8.352;2023-04-01T13:25:54;12.90;45.80
10536;DHT22;5316;49.538;8.352;2023-04-01T13:28:28;12.90;48.40
10536;DHT22;5316;49.538;8.352;2023-04-01T13:31:01;12.90;35.80
10536;DHT22;5316;49.538;8.352;2023-04-01T13:33:38;13.00;35.30
10536;DHT22;5316;49.538;8.352;2023-04-01T13:36:24;12.90;37.90
10536;DHT22;5316;49.538;8.352;2023-04-01T13:39:15;12.90;29.00
10536;DHT22;5316;49.538;8.352;2023-04-01T13:42:03;12.80;49.50
10536;DHT22;5316;49.538;8.352;2023-04-01T13:44:36;12.90;33.40
10536;DHT22;5316;49.538;8.352;2023-04-01T13:47:30;12.90;42.80
10536;DHT22;5316;49.538;8.352;2023-04-01T13:50:22;12.90;45.40
10536;DHT22;5316;49.538;8.352;2023-04-01T13:56:24;12.90;10.20
10536;DHT22;5316;49.538;8.352;2023-04-01T13:59:05;12.90;11.80
10536;DHT22;5316;49.538;8.352;2023-04-01T14:01:40;12.90;23.70
10536;DHT22;5316;49.538;8.352;2023-04-01T14:07:08;12.80;20.50
10536;DHT22;5316;49.538;8.352;2023-04-01T14:09:45;12.80;27.10
10536;DHT22;5316;49.538;8.352;2023-04-01T14:12:29;12.80;26.40
10536;DHT22;5316;49.538;8.352;2023-04-01T14:15:14;12.80;32.50
10536;DHT22;5316;49.538;8.352;2023-04-01T14:17:58;12.70;38.90
10536;DHT22;5316;49.538;8.352;2023-04-01T14:20:38;12.70;29.70
10536;DHT22;5316;49.538;8.352;2023-04-01T14:23:37;12.70;33.60
10536;DHT22;5316;49.538;8.352;2023-04-01T14:26:13;12.60;31.00
10536;DHT22;5316;49.538;8.352;2023-04-01T14:28:52;12.60;31.60
10536;DHT22;5316;49.538;8.352;2023-04-01T14:31:37;12.60;29.60
10536;DHT22;5316;49.538;8.352;2023-04-01T14:34:18;12.60;32.10
10536;DHT22;5316;49.538;8.352;2023-04-01T14:36:57;12.60;30.00
10536;DHT22;5316;49.538;8.352;2023-04-01T14:39:43;12.60;14.90
10536;DHT22;5316;49.538;8.352;2023-04-01T14:42:23;12.60;26.70
10536;DHT22;5316;49.538;8.352;2023-04-01T14:45:24;12.70;23.70
10536;DHT22;5316;49.538;8.352;2023-04-01T14:47:56;12.70;15.30
10536;DHT22;5316;49.538;8.352;2023-04-01T14:50:27;12.70;5.30
10536;DHT22;5316;49.538;8.352;2023-04-01T14:53:09;12.80;10.10
10536;DHT22;5316;49.538;8.352;2023-04-01T14:55:49;12.80;1.00
10536;DHT22;5316;49.538;8.352;2023-04-01T14:58:17;12.80;3.40
10536;DHT22;5316;49.538;8.352;2023-04-01T15:00:58;12.90;1.30
10536;DHT22;5316;49.538;8.352;2023-04-01T15:03:29;12.90;1.00
10536;DHT22;5316;49.538;8.352;2023-04-01T15:06:19;12.90;1.00
10536;DHT22;5316;49.538;8.352;2023-04-01T15:08:54;12.90;1.00
10536;DHT22;5316;49.538;8.352;2023-04-01T15:11:36;12.90;1.00
10536;DHT22;5316;49.538;8.352;2023-04-01T15:14:20;12.80;1.00
10536;DHT22;5316;49.538;8.352;2023-04-01T15:16:55;12.80;1.00
10536;DHT22;5316;49.538;8.352;2023-04-01T15:19:36;12.80;1.00
10536;DHT22;5316;49.538;8.352;2023-04-01T15:22:32;12.80;1.00
10536;DHT22;5316;49.538;8.352;2023-04-01T15:25:17;12.80;1.00
10536;DHT22;5316;49.538;8.352;2023-04-01T15:27:51;12.90;1.00
10536;DHT22;5316;49.538;8.352;2023-04-01T15:30:29;12.90;1.00
10536;DHT22;5316;49.538;8.352;2023-04-01T15:33:17;12.90;1.00
10536;DHT22;5316;49.538;8.352;2023-04-01T15:35:53;12.90;1.00
10536;DHT22;5316;49.538;8.352;2023-04-01T15:38:32;12.90;1.00
10536;DHT22;5316;49.538;8.352;2023-04-01T15:41:08;12.90;1.00
10536;DHT22;5316;49.538;8.352;2023-04-01T15:43:42;12.90;1.00
10536;DHT22;5316;49.538;8.352;2023-04-01T15:46:36;12.80;1.00
10536;DHT22;5316;49.538;8.352;2023-04-01T15:49:26;12.70;1.00
10536;DHT22;5316;49.538;8.352;2023-04-01T15:52:03;12.70;1.00
10536;DHT22;5316;49.538;8.352;2023-04-01T15:55:00;12.60;1.00
10536;DHT22;5316;49.538;8.352;2023-04-01T15:57:40;12.60;1.00
10536;DHT22;5316;49.538;8.352;2023-04-01T16:00:21;12.60;1.00
10536;DHT22;5316;49.538;8.352;2023-04-01T16:02:50;12.70;1.00
10536;DHT22;5316;49.538;8.352;2023-04-01T16:05:33;12.70;1.00
10536;DHT22;5316;49.538;8.352;2023-04-01T16:08:17;12.70;1.00
10536;DHT22;5316;49.538;8.352;2023-04-01T16:10:55;12.70;1.00
10536;DHT22;5316;49.538;8.352;2023-04-01T16:13:37;12.60;1.00
10536;DHT22;5316;49.538;8.352;2023-04-01T16:16:12;12.60;2.20
10536;DHT22;5316;49.538;8.352;2023-04-01T16:18:59;12.60;12.00
10536;DHT22;5316;49.538;8.352;2023-04-01T16:21:38;12.60;20.70
10536;DHT22;5316;49.538;8.352;2023-04-01T16:24:27;12.50;21.30
10536;DHT22;5316;49.538;8.352;2023-04-01T16:27:02;12.50;22.50
10536;DHT22;5316;49.538;8.352;2023-04-01T16:29:36;12.40;21.40
10536;DHT22;5316;49.538;8.352;2023-04-01T16:32:38;12.40;24.30
10536;DHT22;5316;49.538;8.352;2023-04-01T16:35:21;12.40;28.50
10536;DHT22;5316;49.538;8.352;2023-04-01T16:37:53;12.50;17.60
10536;DHT22;5316;49.538;8.352;2023-04-01T16:40:25;12.60;3.40
10536;DHT22;5316;49.538;8.352;2023-04-01T16:43:06;12.60;1.00
10536;DHT22;5316;49.538;8.352;2023-04-01T16:45:40;12.70;1.00
10536;DHT22;5316;49.538;8.352;2023-04-01T16:48:13;12.60;1.00
10536;DHT22;5316;49.538;8.352;2023-04-01T16:50:51;12.60;1.00
10536;DHT22;5316;49.538;8.352;2023-04-01T16:53:26;12.50;1.00
10536;DHT22;5316;49.538;8.352;2023-04-01T16:56:04;12.50;1.00
10536;DHT22;5316;49.538;8.352;2023-04-01T16:58:36;12.50;1.00
10536;DHT22;5316;49.538;8.352;2023-04-01T17:01:06;12.40;1.00
10536;DHT22;5316;49.538;8.352;2023-04-01T17:03:40;12.50;1.00
10536;DHT22;5316;49.538;8.352;2023-04-01T17:06:19;12.40;1.00
10536;DHT22;5316;49.538;8.352;2023-04-01T17:09:05;12.40;1.00
10536;DHT22;5316;49.538;8.352;2023-04-01T17:11:39;12.50;1.00
10536;DHT22;5316;49.538;8.352;2023-04-01T17:14:14;12.60;1.00
10536;DHT22;5316;49.538;8.352;2023-04-01T17:17:00;12.60;1.00
10536;DHT22;5316;49.538;8.352;2023-04-01T17:19:40;12.50;1.00
10536;DHT22;5316;49.538;8.352;2023-04-01T17:22:20;12.30;1.00
10536;DHT22;5316;49.538;8.352;2023-04-01T17:24:58;12.20;1.00
10536;DHT22;5316;49.538;8.352;2023-04-01T17:27:39;12.10;1.00
10536;DHT22;5316;49.538;8.352;2023-04-01T17:30:28;12.10;1.00
10536;DHT22;5316;49.538;8.352;2023-04-01T17:33:31;12.10;1.00
10536;DHT22;5316;49.538;8.352;2023-04-01T17:36:08;12.10;1.00
10536;DHT22;5316;49.538;8.352;2023-04-01T17:38:50;12.00;1.00
10536;DHT22;5316;49.538;8.352;2023-04-01T17:41:28;12.00;1.00
10536;DHT22;5316;49.538;8.352;2023-04-01T17:44:05;12.00;1.00
10536;DHT22;5316;49.538;8.352;2023-04-01T17:46:53;12.00;1.00
10536;DHT22;5316;49.538;8.352;2023-04-01T17:49:28;11.90;1.00
10536;DHT22;5316;49.538;8.352;2023-04-01T17:52:04;11.90;1.00
10536;DHT22;5316;49.538;8.352;2023-04-01T17:54:37;11.90;2.40
10536;DHT22;5316;49.538;8.352;2023-04-01T17:57:22;11.90;5.00
10536;DHT22;5316;49.538;8.352;2023-04-01T17:59:56;11.80;6.50
10536;DHT22;5316;49.538;8.352;2023-04-01T18:02:31;11.80;7.90
10536;DHT22;5316;49.538;8.352;2023-04-01T18:05:18;11.70;15.10
10536;DHT22;5316;49.538;8.352;2023-04-01T18:08:12;11.70;18.20
10536;DHT22;5316;49.538;8.352;2023-04-01T18:10:52;11.60;18.40
10536;DHT22;5316;49.538;8.352;2023-04-01T18:16:47;11.60;20.30
10536;DHT22;5316;49.538;8.352;2023-04-01T19:44:04;11.20;91.10
10536;DHT22;5316;49.538;8.352;2023-04-01T19:47:30;11.20;91.60
10536;DHT22;5316;49.538;8.352;2023-04-01T20:04:26;11.10;99.90
10536;DHT22;5316;49.538;8.352;2023-04-01T20:07:32;11.10;99.90
10536;DHT22;5316;49.538;8.352;2023-04-01T20:10:24;11.10;99.90
10536;DHT22;5316;49.538;8.352;2023-04-01T20:13:56;11.10;99.90
10536;DHT22;5316;49.538;8.352;2023-04-01T20:17:23;11.10;99.90
10536;DHT22;5316;49.538;8.352;2023-04-01T20:52:15;11.00;99.90
10536;DHT22;5316;49.538;8.352;2023-04-01T20:55:47;11.00;99.90
10536;DHT22;5316;49.538;8.352;2023-04-01T21:20:02;10.90;99.90
10536;DHT22;5316;49.538;8.352;2023-04-01T21:26:56;10.90;99.90
10536;DHT22;5316;49.538;8.352;2023-04-01T21:30:58;10.90;99.90
10536;DHT22;5316;49.538;8.352;2023-04-01T22:27:03;10.90;99.90
10536;DHT22;5316;49.538;8.352;2023-04-01T22:37:45;10.90;99.90
10536;DHT22;5316;49.538;8.352;2023-04-01T23:14:57;10.80;99.90
10536;DHT22;5316;49.538;8.352;2023-04-01T23:21:09;10.80;99.90
10536;DHT22;5316;49.538;8.352;2023-04-01T23:24:30;10.80;99.90
10536;DHT22;5316;49.538;8.352;2023-04-01T23:27:47;10.80;99.90
10536;DHT22;5316;49.538;8.352;2023-04-01T23:34:15;10.80;99.90
10536;DHT22;5316;49.538;8.352;2023-04-01T23:37:17;10.70;99.90
10536;DHT22;5316;49.538;8.352;2023-04-01T23:40:48;10.70;99.90
10536;DHT22;5316;49.538;8.352;2023-04-01T23:44:13;10.70;99.90
10536;DHT22;5316;49.538;8.352;2023-04-01T23:50:56;10.70;99.90
10536;DHT22;5316;49.538;8.352;2023-04-01T23:54:17;10.70;99.90
10536;DHT22;5316;49.538;8.352;2023-04-01T23:57:40;10.70;99.90
